Time;durP1;ratioP1;P1;durP2;ratioP2;P2;SDS_P1;SDS_P2;PMS_P1;PMS_P2;Temp;Humidity;BMP_temperature;BMP_pressure;BME280_temperature;BME280_humidity;BME280_pressure;Samples;Min_cycle;Max_cycle;Signal;HPM_P1;HPM_P2
2022/06/14 00:02:34;;;;;;;7.25;4.62;;;;;;;20.83;52.18;98752.72;1685389;83;21068;-41
2022/06/14 00:05:01;;;;;;;6.92;4.40;;;;;;;20.77;52.45;98753.11;1707245;84;20953;-41
2022/06/14 00:07:28;;;;;;;8.70;4.47;;;;;;;20.72;52.81;98750.30;1707004;84;21076;-41
2022/06/14 00:09:56;;;;;;;6.75;5.08;;;;;;;20.69;52.75;98753.95;1707194;84;21006;-41
2022/06/14 00:12:23;;;;;;;6.75;4.85;;;;;;;20.65;52.77;98760.19;1707207;84;21132;-41
2022/06/14 00:14:51;;;;;;;5.85;4.58;;;;;;;20.61;53.10;98747.14;1707097;84;20933;-41
2022/06/14 00:17:21;;;;;;;9.43;5.28;;;;;;;20.57;53.07;98749.23;1706982;84;21111;-41
2022/06/14 00:19:48;;;;;;;6.87;5.20;;;;;;;20.54;53.20;98744.59;1707397;84;21004;-41
2022/06/14 00:22:15;;;;;;;8.83;5.22;;;;;;;20.52;53.12;98743.51;1707135;84;21097;-41
2022/06/14 00:24:43;;;;;;;5.95;5.30;;;;;;;20.49;52.90;98741.62;1707297;84;21100;-41
2022/06/14 00:27:10;;;;;;;7.92;5.25;;;;;;;20.45;52.90;98742.34;1707189;84;21726;-41
2022/06/14 00:29:38;;;;;;;7.22;5.33;;;;;;;20.41;53.06;98734.80;1707289;84;21467;-41
2022/06/14 00:32:08;;;;;;;6.92;5.33;;;;;;;20.38;53.18;98735.83;1707068;84;21156;-41
2022/06/14 00:34:35;;;;;;;7.45;5.78;;;;;;;20.36;53.07;98735.52;1707244;84;21033;-41
2022/06/14 00:37:04;;;;;;;8.53;5.92;;;;;;;20.31;53.25;98729.18;1707292;84;21514;-41
2022/06/14 00:39:31;;;;;;;6.25;5.50;;;;;;;20.28;53.20;98725.88;1707294;84;21053;-41
2022/06/14 00:41:58;;;;;;;6.45;5.58;;;;;;;20.25;53.45;98732.28;1707113;84;21025;-41
2022/06/14 00:44:27;;;;;;;7.50;6.08;;;;;;;20.23;53.52;98723.70;1707292;84;21080;-41
2022/06/14 00:47:13;;;;;;;8.53;5.72;;;;;;;20.22;54.21;98727.66;1707619;84;21045;-41
2022/06/14 00:49:48;;;;;;;9.23;6.15;;;;;;;20.19;54.43;98725.77;1707098;84;21177;-41
2022/06/14 00:52:26;;;;;;;8.33;5.72;;;;;;;20.14;54.81;98724.94;1708966;83;21020;-41
2022/06/14 00:54:58;;;;;;;6.62;5.80;;;;;;;20.12;56.11;98728.75;1750634;82;21080;-41
2022/06/14 00:57:27;;;;;;;6.00;5.40;;;;;;;20.10;56.56;98725.66;1714919;83;21037;-41
2022/06/14 00:59:59;;;;;;;7.87;5.58;;;;;;;20.08;57.38;98728.09;1714756;83;21035;-41
2022/06/14 01:02:37;;;;;;;6.85;5.72;;;;;;;20.06;57.03;98726.37;1715183;83;21090;-41
2022/06/14 01:05:09;;;;;;;7.42;6.25;;;;;;;20.02;55.43;98719.43;1714686;83;21024;-41
2022/06/14 01:07:40;;;;;;;9.75;5.97;;;;;;;19.96;54.44;98721.34;1715028;83;21531;-41
2022/06/14 01:10:11;;;;;;;10.70;6.08;;;;;;;19.95;54.18;98719.02;1714686;83;21036;-41
2022/06/14 01:12:44;;;;;;;7.45;5.97;;;;;;;19.93;54.08;98719.48;1715099;83;21056;-41
2022/06/14 01:15:28;;;;;;;6.95;6.03;;;;;;;19.91;54.54;98722.48;1714984;83;21878;-41
2022/06/14 01:18:05;;;;;;;6.78;5.67;;;;;;;19.85;54.92;98718.73;1750978;81;21001;-41
2022/06/14 01:20:32;;;;;;;6.55;5.90;;;;;;;19.79;54.77;98717.74;1750611;81;20993;-41
2022/06/14 01:23:00;;;;;;;6.78;5.97;;;;;;;19.76;54.81;98714.47;1751075;82;21112;-41
2022/06/14 01:25:30;;;;;;;6.47;5.67;;;;;;;19.73;54.94;98709.25;1715322;83;21555;-41
2022/06/14 01:27:58;;;;;;;7.10;5.62;;;;;;;19.72;55.12;98711.05;1715125;83;21092;-41
2022/06/14 01:30:30;;;;;;;8.15;6.10;;;;;;;19.66;55.17;98706.69;1714999;83;20989;-41
2022/06/14 01:33:06;;;;;;;8.18;5.83;;;;;;;19.65;55.29;98715.39;1714926;83;21013;-41
2022/06/14 01:35:36;;;;;;;6.50;5.90;;;;;;;19.65;55.29;98709.89;1715196;83;21527;-41
2022/06/14 01:38:06;;;;;;;7.08;5.33;;;;;;;19.60;55.41;98709.06;1715122;83;21072;-41
2022/06/14 01:41:14;;;;;;;7.67;5.67;;;;;;;19.59;55.45;98716.53;1715125;83;21073;-41
2022/06/14 01:44:01;;;;;;;8.73;5.85;;;;;;;19.58;55.35;98711.45;1750749;82;21539;-41
2022/06/14 01:46:33;;;;;;;7.78;5.50;;;;;;;19.56;55.54;98712.52;1741342;82;21642;-41
2022/06/14 01:52:40;;;;;;;6.60;5.85;;;;;;;19.54;57.99;98717.06;1749656;82;21095;-41
2022/06/14 01:55:19;;;;;;;6.03;5.40;;;;;;;19.45;59.84;98717.70;1687349;84;21305;-41
2022/06/14 01:58:07;;;;;;;12.20;5.50;;;;;;;19.46;58.74;98712.34;1707356;84;20953;-41
2022/06/14 02:01:04;;;;;;;6.35;5.15;;;;;;;19.52;57.92;98710.61;1707232;84;20961;-41
2022/06/14 02:06:43;;;;;;;8.38;5.25;;;;;;;19.58;57.18;98709.48;1707447;84;21029;-41
2022/06/14 02:09:16;;;;;;;8.23;5.12;;;;;;;19.60;56.84;98706.31;1707507;84;21253;-41
2022/06/14 02:11:43;;;;;;;5.75;5.08;;;;;;;19.62;56.32;98701.12;1707424;84;20925;-41
2022/06/14 02:14:35;;;;;;;6.37;5.35;;;;;;;19.64;56.45;98694.60;1707285;84;21671;-41
2022/06/14 02:17:12;;;;;;;9.28;5.67;;;;;;;19.66;56.31;98696.30;1742907;82;21005;-41
2022/06/14 02:19:53;;;;;;;8.65;5.50;;;;;;;19.66;56.38;98694.92;1743287;81;21081;-41
2022/06/14 02:22:35;;;;;;;6.17;5.40;;;;;;;19.67;56.50;98692.34;1742902;82;23167;-41
2022/06/14 02:25:14;;;;;;;6.20;5.42;;;;;;;19.67;56.44;98687.61;1742739;81;21013;-41
2022/06/14 02:27:57;;;;;;;10.28;5.40;;;;;;;19.66;56.11;98676.44;1742931;81;20966;-41
2022/06/14 02:30:32;;;;;;;7.90;6.08;;;;;;;19.69;55.65;98671.46;1742819;81;21005;-41
2022/06/14 02:33:27;;;;;;;8.43;6.70;;;;;;;19.73;55.42;98673.50;1742962;81;21500;-41
2022/06/14 02:36:00;;;;;;;8.73;6.00;;;;;;;19.75;55.33;98672.44;1707296;83;21104;-41
2022/06/14 02:38:42;;;;;;;10.00;6.58;;;;;;;19.77;55.51;98673.39;1706690;84;21020;-41
2022/06/14 02:41:29;;;;;;;7.22;6.00;;;;;;;19.79;55.97;98680.61;1743002;81;21571;-41
2022/06/14 02:44:01;;;;;;;7.17;5.85;;;;;;;19.79;56.16;98686.89;1742429;81;21081;-41
2022/06/14 02:46:49;;;;;;;6.67;6.00;;;;;;;19.76;58.45;98720.75;1707341;84;21037;-41
2022/06/14 02:49:30;;;;;;;8.05;6.20;;;;;;;19.67;57.29;98763.84;1707305;84;21133;-41
2022/06/14 02:52:10;;;;;;;9.10;6.60;;;;;;;19.57;57.05;98749.78;1742874;81;21021;-41
2022/06/14 02:54:48;;;;;;;9.53;6.67;;;;;;;19.49;57.20;98747.23;1742565;81;20994;-41
2022/06/14 02:57:27;;;;;;;7.60;6.00;;;;;;;19.37;57.78;98765.00;1743117;82;21571;-41
2022/06/14 03:00:12;;;;;;;7.65;5.00;;;;;;;19.27;58.72;98759.17;1743282;82;21033;-41
2022/06/14 03:03:09;;;;;;;8.95;5.30;;;;;;;19.20;58.62;98754.65;1743100;81;21090;-41
2022/06/14 03:06:17;;;;;;;8.30;5.05;;;;;;;19.19;58.61;98779.80;1704090;84;21113;-41
2022/06/14 03:09:01;;;;;;;7.92;4.70;;;;;;;19.17;58.81;98775.36;1703992;84;20997;-42
2022/06/14 03:12:06;;;;;;;7.50;5.03;;;;;;;19.12;59.27;98770.38;1735050;81;21018;-42
2022/06/14 03:14:48;;;;;;;5.83;4.60;;;;;;;19.08;59.70;98789.09;1707045;83;20953;-42
2022/06/14 03:17:33;;;;;;;7.58;4.45;;;;;;;19.02;59.95;98782.58;1707145;84;21845;-41
2022/06/14 03:20:11;;;;;;;5.70;4.55;;;;;;;19.03;60.22;98787.45;1707134;84;20945;-42
2022/06/14 03:23:00;;;;;;;7.58;4.70;;;;;;;19.04;60.42;98778.01;1707238;84;20973;-41
2022/06/14 03:26:00;;;;;;;5.20;4.45;;;;;;;19.03;60.75;98780.58;1707529;84;21070;-41
2022/06/14 03:28:39;;;;;;;9.00;4.60;;;;;;;18.98;60.98;98787.37;1707289;84;21066;-41
2022/06/14 03:31:14;;;;;;;7.62;4.75;;;;;;;18.96;61.22;98787.64;1688119;84;21985;-41
2022/06/14 03:34:01;;;;;;;8.23;4.80;;;;;;;18.97;61.41;98796.83;1706643;84;21573;-42
2022/06/14 03:36:30;;;;;;;6.92;4.67;;;;;;;18.95;61.60;98813.55;1707629;83;21028;-41
2022/06/14 03:39:04;;;;;;;7.65;4.15;;;;;;;18.82;61.71;98810.73;1707317;84;21005;-42
2022/06/14 03:41:33;;;;;;;13.13;4.90;;;;;;;18.80;61.95;98828.22;1707525;84;21482;-41
2022/06/14 03:44:01;;;;;;;10.88;4.33;;;;;;;18.79;62.33;98826.67;1707512;84;21118;-41
2022/06/14 03:46:34;;;;;;;7.50;4.05;;;;;;;18.75;62.52;98848.55;1707764;84;21035;-41
2022/06/14 03:49:15;;;;;;;6.47;3.77;;;;;;;18.68;62.75;98855.58;1707215;84;21079;-41
2022/06/14 03:51:51;;;;;;;5.58;3.75;;;;;;;18.60;63.08;98838.47;1707613;84;21029;-41
2022/06/14 03:54:48;;;;;;;8.58;3.50;;;;;;;18.57;63.24;98846.97;1723627;81;21013;-41
2022/06/14 03:57:48;;;;;;;5.53;3.72;;;;;;;18.57;63.71;98864.81;1755507;81;21240;-41
2022/06/14 04:00:30;;;;;;;6.15;3.17;;;;;;;18.54;63.86;98857.41;1719932;83;21606;-41
2022/06/14 04:03:05;;;;;;;5.60;3.30;;;;;;;18.51;64.20;98853.34;1719968;83;20968;-41
2022/06/14 04:06:00;;;;;;;7.45;3.52;;;;;;;18.45;64.54;98865.42;1720285;83;21048;-41
2022/06/14 04:08:51;;;;;;;6.33;3.00;;;;;;;18.40;65.18;98883.76;1720307;83;21001;-41
2022/06/14 04:11:43;;;;;;;3.62;2.52;;;;;;;18.38;65.31;98894.41;1703388;83;23172;-41
2022/06/14 04:14:41;;;;;;;7.00;2.60;;;;;;;18.41;65.50;98896.29;1720046;83;21066;-41
2022/06/14 04:17:43;;;;;;;3.72;2.40;;;;;;;18.43;65.41;98898.03;1720249;83;21033;-41
2022/06/14 04:20:40;;;;;;;2.67;2.08;;;;;;;18.42;65.39;98900.59;1696932;83;21028;-41
2022/06/14 04:23:18;;;;;;;6.17;2.20;;;;;;;18.37;65.73;98907.95;1720266;83;21079;-41
2022/06/14 04:26:04;;;;;;;3.80;2.53;;;;;;;18.37;65.44;98915.40;1720638;83;23165;-41
2022/06/14 04:28:57;;;;;;;3.37;2.10;;;;;;;18.42;65.51;98906.08;1720371;83;21008;-41
2022/06/14 04:31:39;;;;;;;2.47;2.08;;;;;;;18.48;65.11;98894.79;1720541;83;21082;-41
2022/06/14 04:34:30;;;;;;;2.22;1.90;;;;;;;18.55;64.72;98891.91;1720344;82;21607;-41
2022/06/14 04:37:06;;;;;;;5.60;2.05;;;;;;;18.60;64.19;98900.24;1719453;83;21044;-41
2022/06/14 04:39:48;;;;;;;3.37;2.25;;;;;;;18.61;64.32;98914.16;1720278;83;22025;-42
2022/06/14 04:42:32;;;;;;;4.53;2.20;;;;;;;18.64;64.15;98920.94;1720191;83;21522;-41
2022/06/14 04:45:19;;;;;;;2.77;1.90;;;;;;;18.64;64.01;98924.28;1720201;83;21044;-41
2022/06/14 04:48:03;;;;;;;2.58;1.77;;;;;;;18.62;63.68;98933.55;1720262;83;20949;-41
2022/06/14 04:50:56;;;;;;;1.95;1.70;;;;;;;18.55;64.10;98923.48;1720373;83;21538;-41
2022/06/14 04:53:31;;;;;;;2.15;1.57;;;;;;;18.52;64.20;98918.04;1714951;82;21252;-41
2022/06/14 04:56:10;;;;;;;6.03;2.00;;;;;;;18.55;64.25;98924.85;1701953;84;21001;-41
2022/06/14 04:58:57;;;;;;;2.22;1.57;;;;;;;18.59;64.17;98933.01;1701854;84;20969;-41
2022/06/14 05:01:32;;;;;;;2.35;1.57;;;;;;;18.58;63.58;98950.11;1701923;84;21043;-41
2022/06/14 05:04:05;;;;;;;5.47;1.42;;;;;;;18.47;63.54;98937.16;1720464;82;21569;-41
2022/06/14 05:08:42;;;;;;;4.65;1.37;;;;;;;18.38;64.37;98941.66;1779005;79;22233;-42
2022/06/14 05:11:20;;;;;;;2.75;1.40;;;;;;;18.33;64.75;98949.78;1732905;82;20957;-42
2022/06/14 05:14:02;;;;;;;3.85;1.12;;;;;;;18.38;64.37;98937.53;1738766;82;21920;-42
2022/06/14 05:16:34;;;;;;;1.50;1.30;;;;;;;18.39;63.91;98965.94;1738826;82;21662;-42
2022/06/14 05:19:16;;;;;;;1.40;1.20;;;;;;;18.45;63.83;98973.84;1738415;82;20946;-42
2022/06/14 05:22:01;;;;;;;3.40;1.30;;;;;;;18.52;63.69;98973.72;1738552;82;21034;-42
2022/06/14 05:24:28;;;;;;;1.77;1.47;;;;;;;18.53;63.19;98989.59;1738663;82;21488;-42
2022/06/14 05:27:29;;;;;;;1.30;1.20;;;;;;;18.43;63.66;98983.11;1738635;82;21243;-42
2022/06/14 05:30:15;;;;;;;2.35;1.00;;;;;;;18.32;63.95;98992.14;1738386;82;20970;-42
2022/06/14 05:33:03;;;;;;;1.37;1.27;;;;;;;18.18;64.66;98998.66;1738410;82;20971;-42
2022/06/14 05:35:50;;;;;;;5.20;1.42;;;;;;;18.17;64.71;98989.46;1738618;82;20990;-42
2022/06/14 05:38:38;;;;;;;1.65;1.47;;;;;;;18.07;65.36;99000.02;1738652;82;21516;-42
2022/06/14 05:41:18;;;;;;;1.50;1.40;;;;;;;17.95;65.79;99008.27;1738592;82;21132;-42
2022/06/14 05:43:53;;;;;;;3.90;1.60;;;;;;;17.86;66.34;99023.70;1738569;82;20991;-42
2022/06/14 05:46:30;;;;;;;2.75;1.50;;;;;;;17.78;66.28;99037.52;1738009;82;20980;-42
2022/06/14 05:49:08;;;;;;;1.82;1.55;;;;;;;17.69;66.64;99041.37;1738772;82;21054;-42
2022/06/14 05:51:52;;;;;;;1.85;1.30;;;;;;;17.61;66.61;99049.53;1738954;82;21568;-42
2022/06/14 05:54:46;;;;;;;1.10;1.00;;;;;;;17.59;66.37;99071.69;1726442;82;21842;-42
2022/06/14 05:57:38;;;;;;;3.25;1.22;;;;;;;17.55;66.58;99085.41;1708781;84;21493;-42
2022/06/14 06:00:23;;;;;;;1.50;1.40;;;;;;;17.51;67.80;99064.14;1708990;83;20997;-42
2022/06/14 06:03:16;;;;;;;3.90;1.50;;;;;;;17.40;69.23;99059.39;1709086;83;21509;-42
2022/06/14 06:05:51;;;;;;;1.50;1.40;;;;;;;17.27;70.76;99063.87;1708604;83;21078;-42
2022/06/14 06:08:41;;;;;;;1.40;1.30;;;;;;;17.17;71.46;99071.05;1720553;83;21122;-42
2022/06/14 06:11:32;;;;;;;1.60;1.37;;;;;;;17.18;71.33;99082.78;1724380;83;20939;-42
2022/06/14 06:14:14;;;;;;;2.00;1.25;;;;;;;17.13;71.35;99081.86;1724403;83;21655;-42
2022/06/14 06:17:14;;;;;;;1.62;1.40;;;;;;;17.07;71.65;99070.58;1724495;83;21062;-42
2022/06/14 06:19:26;;;;;;;2.37;1.20;;;;;;;17.09;71.75;99074.28;1716463;83;21049;-41
2022/06/14 06:22:11;;;;;;;1.72;1.60;;;;;;;17.14;71.65;99081.42;1723436;83;21893;-42
2022/06/14 06:24:55;;;;;;;4.92;1.65;;;;;;;17.20;71.55;99077.65;1721793;83;21513;-42
2022/06/14 06:27:27;;;;;;;1.70;1.60;;;;;;;17.22;70.61;99088.98;1724283;83;21096;-42
2022/06/14 06:30:15;;;;;;;1.70;1.60;;;;;;;17.18;70.25;99078.67;1724062;83;21613;-42
2022/06/14 06:32:43;;;;;;;2.05;1.32;;;;;;;17.17;70.09;99085.33;1724162;83;21085;-42
2022/06/14 06:35:10;;;;;;;2.22;1.60;;;;;;;17.18;70.22;99090.99;1724034;83;21142;-42
2022/06/14 06:37:48;;;;;;;1.60;1.50;;;;;;;17.19;69.49;99093.89;1723930;83;21537;-42
2022/06/14 06:40:23;;;;;;;2.25;1.70;;;;;;;17.16;69.15;99102.36;1723916;83;21019;-42
2022/06/14 06:43:11;;;;;;;1.60;1.50;;;;;;;17.17;69.41;99111.34;1723693;83;21025;-42
2022/06/14 06:45:42;;;;;;;1.72;1.50;;;;;;;17.20;69.94;99104.45;1719915;83;21001;-42
2022/06/14 06:48:32;;;;;;;2.40;1.42;;;;;;;17.30;69.33;99105.51;1719748;83;21840;-42
2022/06/14 06:51:03;;;;;;;1.47;1.37;;;;;;;17.39;68.42;99116.16;1719359;83;21559;-42
2022/06/14 06:53:40;;;;;;;2.87;1.40;;;;;;;17.41;67.57;99126.72;1719883;83;21001;-42
2022/06/14 06:56:12;;;;;;;1.98;1.70;;;;;;;17.40;65.44;99136.11;1719277;83;21544;-42
2022/06/14 06:59:01;;;;;;;2.55;1.40;;;;;;;17.37;65.45;99138.31;1719457;83;21661;-42
2022/06/14 07:01:32;;;;;;;1.72;1.30;;;;;;;17.34;65.62;99132.27;1719519;82;21546;-42
2022/06/14 07:04:18;;;;;;;1.30;1.20;;;;;;;17.35;66.19;99139.31;1719477;83;20942;-42
2022/06/14 07:06:54;;;;;;;1.98;1.30;;;;;;;17.40;64.24;99140.23;1719378;83;21065;-42
2022/06/14 07:09:44;;;;;;;2.17;1.10;;;;;;;17.42;63.80;99151.56;1724410;83;21532;-42
2022/06/14 07:12:19;;;;;;;1.20;1.10;;;;;;;17.44;62.29;99147.80;1723771;82;21057;-42
2022/06/14 07:15:07;;;;;;;1.47;1.37;;;;;;;17.45;62.19;99156.81;1724418;82;23266;-42
2022/06/14 07:18:00;;;;;;;2.37;1.47;;;;;;;17.50;63.25;99146.17;1690342;84;21039;-42
2022/06/14 07:20:52;;;;;;;1.55;1.30;;;;;;;16.43;63.61;98971.94;1690087;84;21024;-42
2022/06/14 07:23:25;;;;;;;1.50;1.12;;;;;;;17.85;62.76;99163.37;1690227;84;20961;-42
2022/06/14 07:26:18;;;;;;;1.27;1.17;;;;;;;17.93;61.56;99164.83;1690012;84;21044;-42
2022/06/14 07:29:18;;;;;;;1.92;1.17;;;;;;;17.88;59.83;99168.81;1689895;84;21237;-42
2022/06/14 07:32:05;;;;;;;1.40;1.10;;;;;;;17.80;59.42;99163.25;1690120;84;21031;-42
2022/06/14 07:34:33;;;;;;;1.90;1.20;;;;;;;17.78;59.15;99167.77;1689923;84;20913;-42
2022/06/14 07:37:27;;;;;;;2.98;1.00;;;;;;;17.84;59.37;99167.30;1689999;84;20985;-42
2022/06/14 07:40:08;;;;;;;1.47;1.15;;;;;;;17.92;58.60;99167.38;1689853;84;21574;-42
2022/06/14 07:42:50;;;;;;;2.52;1.35;;;;;;;17.91;57.66;99193.28;1689856;84;21142;-42
2022/06/14 07:45:37;;;;;;;1.55;1.12;;;;;;;17.85;57.93;99188.06;1689801;84;21037;-42
2022/06/14 07:48:12;;;;;;;1.70;0.90;;;;;;;17.86;58.24;99198.63;1690006;84;21110;-42
2022/06/14 07:50:58;;;;;;;2.30;1.30;;;;;;;17.86;57.01;99191.77;1689881;84;21032;-42
2022/06/14 07:53:55;;;;;;;2.85;1.42;;;;;;;17.86;57.61;99185.51;1689809;84;21524;-42
2022/06/14 07:56:33;;;;;;;3.80;1.90;;;;;;;17.82;58.22;99192.39;1675586;84;21248;-42
2022/06/14 07:59:08;;;;;;;1.62;1.00;;;;;;;17.86;59.09;99195.11;1689910;84;21064;-42
2022/06/14 08:01:59;;;;;;;1.40;1.20;;;;;;;17.94;59.30;99202.82;1689693;84;20948;-42
2022/06/14 08:04:37;;;;;;;1.37;1.00;;;;;;;18.07;59.40;99198.32;1690043;84;20957;-42
2022/06/14 08:07:12;;;;;;;2.20;1.30;;;;;;;18.31;60.06;99201.11;1689892;84;20977;-42
2022/06/14 08:09:51;;;;;;;2.33;1.10;;;;;;;18.54;59.33;99197.83;1678144;84;21253;-42
2022/06/14 08:12:44;;;;;;;2.55;1.20;;;;;;;18.62;57.74;99203.41;1676712;85;20945;-42
2022/06/14 08:15:19;;;;;;;4.17;1.30;;;;;;;18.65;57.04;99208.66;1661436;85;21057;-42
2022/06/14 08:18:02;;;;;;;2.83;1.45;;;;;;;18.60;56.18;99208.53;1677477;85;20961;-42
2022/06/14 08:20:49;;;;;;;2.98;1.80;;;;;;;18.64;57.33;99209.84;1677861;85;21022;-42
2022/06/14 08:23:38;;;;;;;2.02;1.45;;;;;;;18.73;57.55;99218.94;1677312;85;22634;-42
2022/06/14 08:26:13;;;;;;;1.30;1.20;;;;;;;18.79;56.92;99222.74;1677719;85;21016;-42
2022/06/14 08:28:48;;;;;;;1.37;1.27;;;;;;;18.88;56.67;99227.88;1711955;83;21036;-42
2022/06/14 08:31:22;;;;;;;1.77;1.25;;;;;;;19.01;56.11;99231.59;1709372;83;21093;-42
2022/06/14 08:34:03;;;;;;;3.12;1.20;;;;;;;19.02;54.50;99225.51;1711853;83;21021;-42
2022/06/14 08:36:43;;;;;;;1.22;1.10;;;;;;;18.95;54.53;99237.98;1711753;82;21134;-42
2022/06/14 08:39:16;;;;;;;1.70;1.27;;;;;;;18.94;55.00;99235.05;1711815;83;21102;-42
2022/06/14 08:42:13;;;;;;;2.65;1.90;;;;;;;18.98;55.13;99241.25;1712046;83;20985;-42
2022/06/14 08:44:57;;;;;;;1.40;1.30;;;;;;;19.03;56.13;99241.55;1711154;83;20965;-42
2022/06/14 08:47:51;;;;;;;1.52;1.40;;;;;;;19.09;55.46;99245.38;1699116;83;21097;-42
2022/06/14 08:50:51;;;;;;;2.12;1.62;;;;;;;19.11;55.34;99242.22;1677211;85;21247;-42
2022/06/14 08:53:41;;;;;;;1.10;1.00;;;;;;;19.09;54.25;99242.63;1676619;85;21588;-42
2022/06/14 08:56:40;;;;;;;2.12;1.40;;;;;;;19.08;53.93;99243.05;1677264;85;21045;-42
2022/06/14 08:59:45;;;;;;;2.17;1.30;;;;;;;19.13;54.12;99241.19;1671574;85;21539;-42
2022/06/14 09:02:43;;;;;;;5.00;1.32;;;;;;;19.14;53.41;99239.22;1657759;85;21033;-42
2022/06/14 09:06:01;;;;;;;1.87;1.40;;;;;;;19.05;53.95;99232.91;1677306;85;21310;-42
2022/06/14 09:08:54;;;;;;;1.37;1.20;;;;;;;18.95;53.67;99242.10;1679316;85;21019;-42
2022/06/14 09:12:02;;;;;;;2.47;1.20;;;;;;;18.90;53.51;99243.95;1684581;85;21101;-42
2022/06/14 09:14:44;;;;;;;2.02;1.30;;;;;;;18.96;53.49;99235.42;1684576;85;21092;-42
2022/06/14 09:17:36;;;;;;;2.90;1.37;;;;;;;19.07;52.45;99227.78;1719396;82;20978;-42
2022/06/14 09:20:18;;;;;;;2.45;1.47;;;;;;;19.25;51.55;99228.23;1719263;83;23226;-42
2022/06/14 09:23:03;;;;;;;2.05;1.27;;;;;;;19.56;50.93;99229.45;1719301;83;21143;-42
2022/06/14 09:25:59;;;;;;;4.62;1.50;;;;;;;19.82;50.01;99233.42;1718943;83;21065;-42
2022/06/14 09:28:55;;;;;;;2.30;1.40;;;;;;;19.92;49.37;99234.41;1683995;84;21088;-42
2022/06/14 09:32:18;;;;;;;2.83;1.60;;;;;;;19.92;50.82;99231.65;1683090;85;21017;-42
2022/06/14 09:35:07;;;;;;;1.85;1.42;;;;;;;20.03;50.02;99232.20;1684449;85;23126;-42
2022/06/14 09:38:02;;;;;;;2.95;1.30;;;;;;;20.15;49.71;99239.80;1684704;85;21550;-42
2022/06/14 09:41:00;;;;;;;1.82;1.15;;;;;;;20.27;48.62;99235.02;1684868;85;21014;-42
2022/06/14 09:43:50;;;;;;;2.92;1.20;;;;;;;20.47;46.40;99233.61;1684817;85;21084;-42
2022/06/14 09:46:50;;;;;;;1.92;1.30;;;;;;;20.56;46.76;99237.92;1684904;85;21819;-42
2022/06/14 09:49:53;;;;;;;;;;;;;;;20.57;45.35;99231.81;1687205;85;21896;-42
2022/06/14 09:53:11;;;;;;;1.30;1.20;;;;;;;20.54;46.66;99231.28;1669360;86;20168;-42
2022/06/14 09:55:56;;;;;;;4.87;1.40;;;;;;;20.34;46.43;99234.87;1677193;85;21529;-42
2022/06/14 09:58:47;;;;;;;2.30;1.17;;;;;;;20.27;47.79;99235.02;1677061;85;21101;-42
2022/06/14 10:01:45;;;;;;;2.83;1.30;;;;;;;20.31;47.92;99228.85;1677167;85;21090;-42
2022/06/14 10:04:50;;;;;;;2.80;1.40;;;;;;;20.45;47.62;99225.59;1677101;85;21146;-42
2022/06/14 10:07:39;;;;;;;2.72;1.40;;;;;;;20.61;46.61;99221.48;1676964;85;21057;-42
2022/06/14 10:11:02;;;;;;;2.20;1.55;;;;;;;20.77;47.07;99221.46;1666363;85;21045;-42
2022/06/14 10:14:13;;;;;;;2.15;1.32;;;;;;;21.01;46.61;99222.81;1677374;85;20993;-42
2022/06/14 10:17:15;;;;;;;1.98;1.30;;;;;;;21.22;44.94;99230.58;1677369;85;21101;-42
2022/06/14 10:19:59;;;;;;;1.50;1.20;;;;;;;21.17;43.57;99231.10;1677484;85;21963;-42
2022/06/14 10:22:55;;;;;;;4.00;1.40;;;;;;;21.01;43.96;99224.83;1677400;85;20950;-42
2022/06/14 10:25:29;;;;;;;1.87;1.22;;;;;;;20.91;43.18;99218.38;1619880;85;21081;-42
2022/06/14 10:28:19;;;;;;;4.05;0.90;;;;;;;20.89;43.45;99223.53;1677260;85;21053;-42
2022/06/14 10:31:25;;;;;;;2.77;1.57;;;;;;;21.04;43.22;99209.56;1622713;85;21045;-42
2022/06/14 10:33:56;;;;;;;3.30;1.40;;;;;;;21.19;42.94;99208.02;1677412;85;21588;-42
2022/06/14 10:36:38;;;;;;;1.57;1.10;;;;;;;21.36;42.44;99214.25;1677336;85;21103;-42
2022/06/14 10:39:40;;;;;;;2.85;1.45;;;;;;;21.49;42.16;99212.94;1675235;85;21077;-42
2022/06/14 10:42:29;;;;;;;2.62;1.60;;;;;;;21.67;42.12;99205.70;1677255;85;21045;-42
2022/06/14 10:45:11;;;;;;;3.92;1.30;;;;;;;21.92;41.98;99212.48;1677301;85;21116;-42
2022/06/14 10:48:10;;;;;;;3.85;1.35;;;;;;;22.01;41.86;99214.80;1677200;85;21151;-42
2022/06/14 10:50:49;;;;;;;1.87;1.40;;;;;;;21.94;41.59;99220.52;1677244;85;21078;-43
2022/06/14 10:53:24;;;;;;;4.42;1.50;;;;;;;21.93;41.13;99213.44;1677151;85;21125;-42
2022/06/14 10:56:21;;;;;;;3.00;1.50;;;;;;;21.82;41.05;99207.45;1677354;85;21583;-42
2022/06/14 10:59:23;;;;;;;1.42;1.30;;;;;;;21.85;40.06;99207.94;1677386;85;20986;-42
2022/06/14 11:02:05;;;;;;;1.57;1.20;;;;;;;22.02;37.96;99209.45;1677551;85;21608;-42
2022/06/14 11:04:51;;;;;;;3.67;1.50;;;;;;;22.10;38.52;99212.75;1672167;85;21032;-42
2022/06/14 11:07:55;;;;;;;5.62;1.42;;;;;;;22.15;39.54;99211.43;1666994;86;21069;-42
2022/06/14 11:10:40;;;;;;;3.77;1.10;;;;;;;22.15;39.85;99204.53;1658227;84;21048;-42
2022/06/14 11:13:38;;;;;;;2.27;1.30;;;;;;;22.15;40.79;99203.15;1658944;86;21085;-42
2022/06/14 11:16:47;;;;;;;1.32;1.22;;;;;;;22.43;40.71;99191.20;1659105;86;21246;-42
2022/06/14 11:19:38;;;;;;;3.98;1.62;;;;;;;22.64;38.84;99204.34;1658736;86;21057;-43
2022/06/14 11:22:22;;;;;;;2.35;1.50;;;;;;;22.90;39.44;99194.02;1659087;86;21021;-43
2022/06/14 11:25:21;;;;;;;3.08;1.50;;;;;;;23.10;39.79;99193.74;1659020;85;21057;-43
2022/06/14 11:28:03;;;;;;;2.75;1.60;;;;;;;23.22;38.65;99196.48;1658871;86;20993;-43
2022/06/14 11:30:47;;;;;;;4.12;1.45;;;;;;;23.18;39.07;99201.98;1659132;86;21241;-43
2022/06/14 11:33:57;;;;;;;1.80;1.35;;;;;;;23.12;38.50;99203.76;1658839;86;21498;-43
2022/06/14 11:36:47;;;;;;;2.85;1.65;;;;;;;23.12;38.85;99202.38;1658793;86;21088;-43
2022/06/14 11:39:23;;;;;;;3.27;1.50;;;;;;;23.32;38.45;99193.17;1659202;86;21112;-44
2022/06/14 11:41:50;;;;;;;2.15;1.60;;;;;;;23.43;36.58;99199.08;1659164;86;21108;-43
2022/06/14 11:44:53;;;;;;;2.00;1.45;;;;;;;23.49;35.87;99197.92;1659235;86;21140;-44
2022/06/14 11:47:31;;;;;;;4.62;1.60;;;;;;;23.60;35.43;99188.62;1659127;86;21059;-44
2022/06/14 11:50:19;;;;;;;2.70;1.52;;;;;;;23.85;35.53;99191.25;1659144;86;21022;-44
2022/06/14 11:53:20;;;;;;;5.60;1.47;;;;;;;24.08;35.40;99180.28;1659183;86;20989;-44
2022/06/14 11:56:13;;;;;;;3.15;1.65;;;;;;;24.10;34.69;99178.61;1659042;86;21527;-44
2022/06/14 11:59:29;;;;;;;3.35;1.40;;;;;;;23.93;35.88;99193.90;1658278;86;21175;-43
2022/06/14 12:02:23;;;;;;;3.62;1.40;;;;;;;23.72;37.17;99200.25;1659051;86;20986;-43
2022/06/14 12:05:20;;;;;;;4.35;1.82;;;;;;;23.71;37.70;99195.94;1658767;86;21072;-43
2022/06/14 12:08:21;;;;;;;2.50;1.60;;;;;;;23.91;35.48;99202.52;1658881;86;21590;-44
2022/06/14 12:11:25;;;;;;;4.05;1.42;;;;;;;24.20;35.49;99209.92;1658981;84;21061;-44
2022/06/14 12:14:19;;;;;;;2.92;1.80;;;;;;;24.28;33.79;99197.33;1658265;86;21278;-44
2022/06/14 12:17:01;;;;;;;2.75;1.45;;;;;;;24.40;34.23;99193.66;1658559;86;21140;-44
2022/06/14 12:19:32;;;;;;;1.82;1.60;;;;;;;24.62;34.35;99184.66;1659080;85;21094;-44
2022/06/14 12:22:29;;;;;;;4.47;1.82;;;;;;;24.96;33.40;99201.69;1659065;86;21065;-44
2022/06/14 12:28:28;;;;;;;6.37;1.60;;;;;;;25.43;33.23;99190.12;1659170;86;21207;-44
2022/06/14 12:31:03;;;;;;;4.15;1.80;;;;;;;25.47;32.82;99193.51;1633429;86;21026;-44
2022/06/14 12:33:50;;;;;;;2.95;1.60;;;;;;;25.35;32.38;99197.23;1658589;86;21068;-44
2022/06/14 12:36:42;;;;;;;2.42;1.75;;;;;;;25.52;32.36;99200.44;1658016;86;21049;-44
2022/06/14 12:39:28;;;;;;;2.15;1.45;;;;;;;25.88;31.58;99195.48;1659011;86;20970;-44
2022/06/14 12:42:10;;;;;;;4.40;1.52;;;;;;;26.18;30.71;99196.47;1658830;86;21301;-44
2022/06/14 12:44:59;;;;;;;4.60;1.67;;;;;;;26.21;30.09;99198.30;1658990;85;21061;-44
2022/06/14 12:47:49;;;;;;;1.95;1.07;;;;;;;26.41;30.01;99201.33;1659056;86;20993;-43
2022/06/14 12:50:35;;;;;;;3.58;1.40;;;;;;;26.55;30.29;99208.98;1659316;86;21034;-44
2022/06/14 12:53:20;;;;;;;3.35;1.50;;;;;;;26.33;30.22;99203.69;1658962;86;21065;-43
2022/06/14 12:55:52;;;;;;;2.85;1.30;;;;;;;25.92;30.89;99205.80;1654218;86;23166;-43
2022/06/14 12:58:37;;;;;;;4.50;1.45;;;;;;;25.49;31.15;99204.16;1658754;86;20938;-43
2022/06/14 13:01:24;;;;;;;2.42;1.50;;;;;;;25.12;32.19;99217.89;1659235;86;21121;-44
2022/06/14 13:04:01;;;;;;;2.83;1.27;;;;;;;24.07;31.35;99057.64;1658725;86;21126;-44
2022/06/14 13:07:03;;;;;;;1.85;1.40;;;;;;;25.22;31.38;99199.41;1659307;86;21053;-44